Time;durP1;ratioP1;P1;durP2;ratioP2;P2;SDS_P1;SDS_P2;PMS_P1;PMS_P2;Temp;Humidity;BMP_temperature;BMP_pressure;BME280_temperature;BME280_humidity;BME280_pressure;Samples;Min_cycle;Max_cycle;Signal;HPM_P1;HPM_P2
2024/03/10 00:01:34;;;;;;;;;;;;;;;12.05;72.29;100025.38;5073377;28;19916;-80
2024/03/10 00:04:27;;;;;;;;;;;;;;;12.00;72.65;100027.19;5079853;28;19916;-81
2024/03/10 00:07:16;;;;;;;;;;;;;;;11.97;72.92;100016.19;5082792;28;19920;-79
2024/03/10 00:10:09;;;;;;;;;;;;;;;11.91;72.79;100023.81;5080241;28;19916;-81
2024/03/10 00:13:00;;;;;;;;;;;;;;;12.09;71.80;100015.41;5064710;28;19920;-80
2024/03/10 00:15:50;;;;;;;;;;;;;;;12.05;71.94;100018.00;5092948;28;19916;-81
2024/03/10 00:18:39;;;;;;;;;;;;;;;12.18;71.27;100018.78;5078432;28;19916;-81
2024/03/10 00:21:31;;;;;;;;;;;;;;;12.11;71.19;100030.25;5093446;28;19916;-81
2024/03/10 00:24:20;;;;;;;;;;;;;;;12.08;71.65;100022.78;5078753;28;19916;-81
2024/03/10 00:27:15;;;;;;;;;;;;;;;12.22;71.01;100025.16;5078197;28;19916;-81
2024/03/10 00:30:07;;;;;;;;;;;;;;;12.16;71.38;100012.88;5083802;28;19916;-81
2024/03/10 00:32:57;;;;;;;;;;;;;;;12.15;71.18;100016.72;5086441;28;19924;-80
2024/03/10 00:35:49;;;;;;;;;;;;;;;12.15;71.50;100016.72;5099792;28;19916;-81
2024/03/10 00:38:39;;;;;;;;;;;;;;;11.98;71.51;100021.31;5112002;28;19920;-80
2024/03/10 00:41:31;;;;;;;;;;;;;;;12.00;71.83;100019.03;5112328;28;19916;-80
2024/03/10 00:44:23;;;;;;;;;;;;;;;12.07;71.96;100023.91;5101467;28;19915;-81
2024/03/10 00:47:15;;;;;;;;;;;;;;;12.05;71.76;100025.38;5112274;28;19924;-81
2024/03/10 00:50:07;;;;;;;;;;;;;;;12.06;72.19;100010.63;5109072;28;19920;-81
2024/03/10 00:52:55;;;;;;;;;;;;;;;11.95;72.64;100018.47;5100669;28;19920;-81
2024/03/10 00:55:47;;;;;;;;;;;;;;;11.95;72.54;100011.09;5102357;28;20372;-80
2024/03/10 00:58:39;;;;;;;;;;;;;;;11.85;73.14;100002.56;5099190;28;19915;-80
2024/03/10 01:01:31;;;;;;;;;;;;;;;11.87;72.91;99992.94;5097735;28;19916;-80
2024/03/10 01:04:23;;;;;;;;;;;;;;;11.93;72.94;99979.88;5098354;28;20284;-81
2024/03/10 01:07:15;;;;;;;;;;;;;;;11.97;72.31;99975.31;5102412;28;19919;-80
2024/03/10 01:10:07;;;;;;;;;;;;;;;12.03;71.90;99976.69;5100654;28;19920;-80
2024/03/10 01:13:00;;;;;;;;;;;;;;;12.09;71.36;99966.34;5091807;28;19927;-80
2024/03/10 01:15:51;;;;;;;;;;;;;;;12.15;70.50;99954.06;5101601;28;20385;-80
2024/03/10 01:18:41;;;;;;;;;;;;;;;12.07;70.68;99952.25;5097905;28;19915;-81
2024/03/10 01:21:33;;;;;;;;;;;;;;;12.09;70.61;99950.00;5097620;28;19919;-80
2024/03/10 01:24:25;;;;;;;;;;;;;;;12.12;70.70;99928.28;5112644;28;19928;-80
2024/03/10 01:27:16;;;;;;;;;;;;;;;12.18;70.33;99928.84;5084823;28;20324;-80
2024/03/10 01:30:08;;;;;;;;;;;;;;;12.19;70.14;99923.03;5102215;28;20102;-80
2024/03/10 01:33:00;;;;;;;;;;;;;;;12.20;69.67;99910.19;5100365;28;19920;-80
2024/03/10 01:35:52;;;;;;;;;;;;;;;12.17;69.29;99898.06;5084028;28;19915;-79
2024/03/10 01:38:44;;;;;;;;;;;;;;;12.14;69.34;99893.28;5089630;28;19915;-80
2024/03/10 01:41:39;;;;;;;;;;;;;;;12.09;69.45;99885.38;5085666;28;19915;-80
2024/03/10 01:44:31;;;;;;;;;;;;;;;12.16;69.10;99895.69;5096547;28;19920;-79
2024/03/10 01:47:24;;;;;;;;;;;;;;;12.15;68.94;99894.88;5092004;28;19916;-79
2024/03/10 01:50:15;;;;;;;;;;;;;;;12.18;68.89;99890.69;5097157;28;19927;-80
2024/03/10 01:53:07;;;;;;;;;;;;;;;12.16;68.47;99874.69;5096521;28;19924;-80
2024/03/10 01:55:56;;;;;;;;;;;;;;;12.17;68.39;99865.38;5087886;28;19916;-80
2024/03/10 01:58:54;;;;;;;;;;;;;;;12.18;68.38;99847.88;5082178;28;19924;-80
2024/03/10 02:01:43;;;;;;;;;;;;;;;12.21;68.03;99835.47;5081196;28;19916;-80
2024/03/10 02:04:35;;;;;;;;;;;;;;;12.22;67.59;99828.88;5081393;28;19924;-81
2024/03/10 02:07:25;;;;;;;;;;;;;;;12.26;67.64;99813.41;5081068;28;19920;-81
2024/03/10 02:10:17;;;;;;;;;;;;;;;12.22;67.14;99807.09;5084450;28;19920;-80
2024/03/10 02:13:09;;;;;;;;;;;;;;;12.27;66.94;99795.94;5082406;28;19920;-81
2024/03/10 02:16:02;;;;;;;;;;;;;;;12.29;66.15;99796.38;5072078;28;19916;-80
2024/03/10 02:18:54;;;;;;;;;;;;;;;12.27;66.15;99787.75;5095637;28;19916;-80
2024/03/10 02:21:46;;;;;;;;;;;;;;;12.27;66.34;99793.19;5095648;28;20385;-80
2024/03/10 02:24:42;;;;;;;;;;;;;;;12.31;65.92;99791.34;5080193;28;20301;-80
2024/03/10 02:27:32;;;;;;;;;;;;;;;12.33;65.45;99794.53;5087538;28;19920;-80
2024/03/10 02:30:29;;;;;;;;;;;;;;;12.31;65.36;99775.78;5085848;28;19916;-81
2024/03/10 02:48:58;;;;;;;;;;;;;;;12.44;63.96;99738.34;5079906;28;19920;-79
2024/03/10 02:51:50;;;;;;;;;;;;;;;12.49;63.54;99745.47;5081499;28;19920;-80
2024/03/10 02:54:41;;;;;;;;;;;;;;;12.41;63.90;99752.69;5079958;28;20377;-81
2024/03/10 02:57:33;;;;;;;;;;;;;;;12.40;63.97;99742.91;5085867;28;19920;-80
2024/03/10 03:00:26;;;;;;;;;;;;;;;12.43;64.28;99748.47;5082781;28;19916;-81
2024/03/10 03:03:17;;;;;;;;;;;;;;;12.40;64.08;99738.25;5067311;28;19916;-80
2024/03/10 03:06:09;;;;;;;;;;;;;;;12.27;64.67;99728.56;5072280;28;19916;-80
2024/03/10 03:09:02;;;;;;;;;;;;;;;12.20;65.45;99735.75;5067459;28;20317;-80
2024/03/10 03:11:53;;;;;;;;;;;;;;;12.16;65.98;99732.16;5065746;28;19920;-80
2024/03/10 03:14:45;;;;;;;;;;;;;;;12.10;66.65;99725.38;5091669;28;19919;-79
2024/03/10 03:17:34;;;;;;;;;;;;;;;12.02;67.28;99713.50;5060852;28;19920;-81
2024/03/10 03:20:21;;;;;;;;;;;;;;;12.09;66.88;99715.63;5050527;28;19916;-80
2024/03/10 03:23:08;;;;;;;;;;;;;;;11.91;68.36;99721.41;5063011;28;20305;-80
2024/03/10 03:25:57;;;;;;;;;;;;;;;11.93;68.49;99716.41;5051395;28;19920;-80
2024/03/10 03:28:49;;;;;;;;;;;;;;;11.95;68.69;99716.03;5059127;28;19916;-80
2024/03/10 03:31:38;;;;;;;;;;;;;;;11.94;69.12;99715.25;5074515;28;19921;-79
2024/03/10 03:34:28;;;;;;;;;;;;;;;11.97;69.32;99713.75;5046006;28;19917;-80
2024/03/10 03:37:20;;;;;;;;;;;;;;;11.97;69.81;99711.84;5065988;28;20285;-80
2024/03/10 03:40:07;;;;;;;;;;;;;;;12.02;69.70;99712.72;5058890;28;19920;-80
2024/03/10 03:42:59;;;;;;;;;;;;;;;11.95;70.06;99705.13;5058666;28;19920;-79
2024/03/10 03:45:49;;;;;;;;;;;;;;;12.02;69.73;99696.38;5049343;28;19916;-80
2024/03/10 03:48:41;;;;;;;;;;;;;;;12.07;69.67;99691.47;5047108;28;19916;-81
2024/03/10 03:51:33;;;;;;;;;;;;;;;12.03;69.71;99687.06;5058681;28;19920;-79
2024/03/10 03:54:25;;;;;;;;;;;;;;;12.03;70.09;99682.41;5045667;28;20328;-80
2024/03/10 03:57:16;;;;;;;;;;;;;;;11.98;70.04;99678.00;5058387;28;19916;-80
2024/03/10 04:00:11;;;;;;;;;;;;;;;11.96;70.14;99668.59;5049751;28;19916;-80
2024/03/10 04:03:03;;;;;;;;;;;;;;;11.95;70.42;99667.78;5071351;28;19920;-80
2024/03/10 04:05:55;;;;;;;;;;;;;;;11.91;70.33;99663.41;5078924;28;20316;-81
2024/03/10 04:08:45;;;;;;;;;;;;;;;11.90;70.67;99657.16;5082392;28;19916;-81
2024/03/10 04:11:37;;;;;;;;;;;;;;;11.83;71.05;99658.91;5093259;28;19920;-80
2024/03/10 04:14:29;;;;;;;;;;;;;;;11.92;70.78;99657.59;5079098;28;20540;-81
2024/03/10 04:17:21;;;;;;;;;;;;;;;11.87;71.02;99659.78;5082180;28;19920;-80
2024/03/10 04:20:13;;;;;;;;;;;;;;;11.88;70.88;99655.94;5092615;28;20452;-80
2024/03/10 04:23:05;;;;;;;;;;;;;;;11.83;71.07;99646.09;5093197;28;19924;-80
2024/03/10 04:25:57;;;;;;;;;;;;;;;11.88;70.67;99647.75;5084790;28;19916;-80
2024/03/10 04:28:49;;;;;;;;;;;;;;;11.86;70.71;99645.38;5078307;28;19919;-80
2024/03/10 04:31:41;;;;;;;;;;;;;;;11.87;70.82;99644.25;5082724;28;19932;-80
2024/03/10 04:34:33;;;;;;;;;;;;;;;11.85;71.07;99645.72;5078078;28;19916;-80
2024/03/10 04:37:25;;;;;;;;;;;;;;;11.86;70.94;99641.84;5094345;28;19920;-80
2024/03/10 04:40:18;;;;;;;;;;;;;;;11.88;70.87;99640.38;5090529;28;19916;-80
2024/03/10 04:43:07;;;;;;;;;;;;;;;11.83;71.07;99640.63;5100185;28;19920;-80
2024/03/10 04:45:54;;;;;;;;;;;;;;;11.83;71.08;99640.63;5113710;28;19916;-80
2024/03/10 04:48:46;;;;;;;;;;;;;;;11.83;71.57;99642.56;5104935;28;19919;-80
2024/03/10 04:51:38;;;;;;;;;;;;;;;11.77;72.27;99649.41;5092296;28;19920;-80
2024/03/10 04:54:29;;;;;;;;;;;;;;;11.79;72.65;99637.00;5077817;28;19920;-79
2024/03/10 04:57:21;;;;;;;;;;;;;;;11.83;72.45;99637.13;5050850;28;19916;-79
2024/03/10 05:00:14;;;;;;;;;;;;;;;11.79;72.42;99641.66;5054403;28;20475;-79
2024/03/10 05:03:06;;;;;;;;;;;;;;;11.84;72.19;99641.41;5057785;28;19916;-79
2024/03/10 05:05:58;;;;;;;;;;;;;;;11.83;71.94;99632.47;5081640;28;19915;-79
2024/03/10 05:08:50;;;;;;;;;;;;;;;11.80;71.73;99630.44;5091242;28;19916;-78
2024/03/10 05:11:42;;;;;;;;;;;;;;;11.78;72.07;99623.75;5077543;28;20091;-79
2024/03/10 05:14:34;;;;;;;;;;;;;;;11.76;71.91;99615.94;5090547;28;19916;-81
2024/03/10 05:17:26;;;;;;;;;;;;;;;11.73;72.08;99615.84;5102749;28;20408;-79
2024/03/10 05:20:18;;;;;;;;;;;;;;;11.72;72.00;99606.06;5097515;28;20387;-79
2024/03/10 05:23:10;;;;;;;;;;;;;;;11.66;72.40;99600.06;5083479;28;20371;-79
2024/03/10 05:26:02;;;;;;;;;;;;;;;11.63;72.77;99591.81;5103951;28;19916;-80
2024/03/10 05:28:51;;;;;;;;;;;;;;;11.54;73.17;99597.41;5098780;28;19916;-80
2024/03/10 05:31:43;;;;;;;;;;;;;;;11.55;73.08;99579.94;5102900;28;19919;-80
2024/03/10 05:34:35;;;;;;;;;;;;;;;11.57;72.76;99569.50;5068834;28;19920;-80
2024/03/10 05:37:27;;;;;;;;;;;;;;;11.57;73.22;99548.50;5078461;28;20385;-80
2024/03/10 05:40:18;;;;;;;;;;;;;;;11.54;73.40;99549.19;5082158;28;19916;-80
2024/03/10 05:43:08;;;;;;;;;;;;;;;11.51;73.22;99554.56;5091838;28;19920;-79
2024/03/10 05:46:00;;;;;;;;;;;;;;;11.51;73.44;99543.66;5077314;28;19916;-80
2024/03/10 05:48:52;;;;;;;;;;;;;;;11.53;73.13;99539.44;5083244;28;19915;-79
2024/03/10 05:51:41;;;;;;;;;;;;;;;11.53;73.18;99547.59;5079003;28;19920;-80
2024/03/10 05:54:39;;;;;;;;;;;;;;;11.47;73.26;99538.13;5084996;28;19920;-80
2024/03/10 05:57:28;;;;;;;;;;;;;;;11.56;73.05;99537.97;5091047;28;19917;-79
2024/03/10 06:00:17;;;;;;;;;;;;;;;11.57;73.25;99534.09;5077941;28;19916;-80
2024/03/10 06:03:09;;;;;;;;;;;;;;;11.56;73.20;99535.25;5090425;28;19917;-79
2024/03/10 06:06:01;;;;;;;;;;;;;;;11.58;72.72;99520.13;5104793;28;19916;-79
2024/03/10 06:08:48;;;;;;;;;;;;;;;11.56;73.42;99499.84;5090437;28;19920;-79
2024/03/10 06:11:40;;;;;;;;;;;;;;;11.56;73.72;99513.47;5095909;28;19920;-79
2024/03/10 06:14:28;;;;;;;;;;;;;;;11.55;73.35;99509.16;5091388;28;20381;-78
2024/03/10 06:17:20;;;;;;;;;;;;;;;11.59;73.39;99499.94;5092457;28;19916;-79
2024/03/10 06:26:27;;;;;;;;;;;;;;;11.62;73.13;99497.66;5091152;28;19916;-79
2024/03/10 06:29:19;;;;;;;;;;;;;;;11.59;73.17;99504.59;5092010;28;20313;-79
2024/03/10 06:32:11;;;;;;;;;;;;;;;11.55;73.36;99506.44;5081243;28;19924;-79
2024/03/10 06:35:03;;;;;;;;;;;;;;;11.59;73.33;99485.53;5102309;28;19916;-79
2024/03/10 06:37:55;;;;;;;;;;;;;;;11.62;73.47;99481.31;5104259;28;19916;-80
2024/03/10 06:40:42;;;;;;;;;;;;;;;11.56;73.35;99478.06;5095086;28;20384;-79
2024/03/10 06:43:34;;;;;;;;;;;;;;;11.58;73.38;99484.72;5077701;28;19920;-80
2024/03/10 06:46:26;;;;;;;;;;;;;;;12.26;73.99;99497.22;5066287;28;20396;-80
2024/03/10 06:49:23;;;;;;;;;;;;;;;12.84;72.84;99478.97;5101449;28;19916;-78
2024/03/10 06:52:13;;;;;;;;;;;;;;;13.04;70.17;99482.47;5069140;28;19924;-78
2024/03/10 06:55:03;;;;;;;;;;;;;;;13.26;68.70;99484.44;5075834;28;19916;-78
2024/03/10 06:57:55;;;;;;;;;;;;;;;13.50;67.37;99469.66;5082535;28;19920;-81
2024/03/10 07:00:46;;;;;;;;;;;;;;;13.56;66.46;99471.72;5078935;28;20304;-78
2024/03/10 07:03:38;;;;;;;;;;;;;;;13.62;66.12;99478.44;5081479;28;19916;-77
2024/03/10 07:06:28;;;;;;;;;;;;;;;13.77;65.37;99475.94;5081715;28;20313;-77
2024/03/10 07:09:21;;;;;;;;;;;;;;;14.05;64.75;99473.66;5093475;28;19920;-77
2024/03/10 07:12:11;;;;;;;;;;;;;;;13.81;65.06;99461.19;5083303;28;19920;-79
2024/03/10 07:15:04;;;;;;;;;;;;;;;13.78;64.79;99450.19;5092860;28;20551;-77
2024/03/10 07:17:57;;;;;;;;;;;;;;;13.88;64.48;99446.84;5092755;28;19916;-77
2024/03/10 07:20:49;;;;;;;;;;;;;;;13.90;64.19;99444.53;5093525;28;19916;-77
2024/03/10 07:23:41;;;;;;;;;;;;;;;13.87;63.93;99435.13;5092719;28;19916;-78
2024/03/10 07:26:38;;;;;;;;;;;;;;;13.88;64.08;99422.25;5093515;28;19920;-78
2024/03/10 07:29:30;;;;;;;;;;;;;;;14.04;63.78;99420.13;5081250;28;20380;-78
2024/03/10 07:32:22;;;;;;;;;;;;;;;13.92;63.80;99423.06;5095254;28;19924;-76
2024/03/10 07:35:11;;;;;;;;;;;;;;;13.98;63.64;99424.34;5088844;28;19916;-77
2024/03/10 07:38:02;;;;;;;;;;;;;;;13.97;63.63;99415.34;5078208;28;19916;-77
2024/03/10 07:40:48;;;;;;;;;;;;;;;13.99;63.47;99417.72;5070945;28;19916;-77
2024/03/10 07:43:40;;;;;;;;;;;;;;;14.11;63.31;99398.38;5076648;28;19917;-78
2024/03/10 07:46:30;;;;;;;;;;;;;;;14.28;62.94;99397.78;5093963;28;20305;-78
2024/03/10 07:49:22;;;;;;;;;;;;;;;14.21;63.30;99397.72;5069328;28;20424;-79
2024/03/10 07:52:14;;;;;;;;;;;;;;;14.26;63.03;99402.06;5092926;28;20289;-78
2024/03/10 07:55:09;;;;;;;;;;;;;;;14.06;63.44;99401.44;5079709;28;19916;-77
2024/03/10 07:57:59;;;;;;;;;;;;;;;14.09;63.66;99387.00;5093223;28;19920;-79
2024/03/10 08:00:51;;;;;;;;;;;;;;;13.90;63.99;99387.16;5078449;28;20283;-78
2024/03/10 08:03:40;;;;;;;;;;;;;;;13.98;63.99;99407.94;5060136;28;19920;-78
2024/03/10 08:06:30;;;;;;;;;;;;;;;13.96;64.05;99402.06;5073211;28;19931;-78
2024/03/10 08:09:22;;;;;;;;;;;;;;;13.89;64.44;99407.44;5074481;28;19924;-79
2024/03/10 08:12:14;;;;;;;;;;;;;;;13.92;65.66;99402.00;5076428;28;19920;-78
2024/03/10 08:15:06;;;;;;;;;;;;;;;13.81;66.44;99400.31;5081718;28;19916;-79
2024/03/10 08:17:58;;;;;;;;;;;;;;;13.71;66.99;99399.75;5079698;28;19920;-79
2024/03/10 08:20:48;;;;;;;;;;;;;;;13.89;66.03;99391.81;5083751;28;19917;-80
2024/03/10 08:23:35;;;;;;;;;;;;;;;13.94;65.36;99379.78;5092211;28;19920;-80
2024/03/10 08:26:24;;;;;;;;;;;;;;;14.10;65.12;99375.72;5068414;28;19920;-80
2024/03/10 08:29:14;;;;;;;;;;;;;;;14.15;64.95;99374.59;5077340;28;20008;-80
2024/03/10 08:32:06;;;;;;;;;;;;;;;14.15;65.31;99377.31;5093484;28;19924;-80
2024/03/10 08:34:58;;;;;;;;;;;;;;;14.21;64.73;99380.53;5093502;28;19916;-80
2024/03/10 08:37:50;;;;;;;;;;;;;;;14.29;64.45;99371.25;5067813;28;19916;-80
2024/03/10 08:40:40;;;;;;;;;;;;;;;14.09;64.86;99389.75;5075290;28;20308;-80
2024/03/10 08:43:32;;;;;;;;;;;;;;;14.03;65.51;99380.28;5068351;28;19916;-80
2024/03/10 08:46:24;;;;;;;;;;;;;;;14.29;65.32;99363.03;5096700;28;20301;-80
2024/03/10 08:49:16;;;;;;;;;;;;;;;14.30;65.23;99353.69;5097446;28;19920;-80
2024/03/10 08:52:09;;;;;;;;;;;;;;;14.25;65.44;99343.06;5076456;28;20318;-79
2024/03/10 08:55:00;;;;;;;;;;;;;;;14.22;65.54;99341.84;5095709;28;19916;-80
2024/03/10 08:57:53;;;;;;;;;;;;;;;14.16;65.48;99316.03;5064019;28;20470;-79
2024/03/10 09:00:43;;;;;;;;;;;;;;;14.08;66.26;99322.56;5083208;28;19916;-81
2024/03/10 09:03:35;;;;;;;;;;;;;;;14.06;66.08;99313.97;5072685;28;20309;-81
2024/03/10 09:06:25;;;;;;;;;;;;;;;13.87;67.06;99314.09;5060987;28;19920;-80
2024/03/10 09:09:18;;;;;;;;;;;;;;;14.00;67.19;99308.03;5092552;28;19920;-80
2024/03/10 09:12:11;;;;;;;;;;;;;;;14.02;66.78;99302.97;5077976;28;19920;-79
2024/03/10 09:14:59;;;;;;;;;;;;;;;14.18;66.93;99300.03;5082168;28;19920;-82
2024/03/10 09:17:48;;;;;;;;;;;;;;;14.30;66.30;99299.00;5080071;28;19916;-79
2024/03/10 09:20:35;;;;;;;;;;;;;;;14.38;65.83;99282.31;5056780;28;20393;-79
2024/03/10 09:23:26;;;;;;;;;;;;;;;14.61;65.39;99267.69;5076191;28;19919;-78
2024/03/10 09:26:18;;;;;;;;;;;;;;;14.85;65.45;99267.09;5069656;28;19920;-77
2024/03/10 09:29:11;;;;;;;;;;;;;;;14.82;66.32;99271.38;5089203;28;19920;-78
2024/03/10 09:32:04;;;;;;;;;;;;;;;14.96;65.59;99257.03;5084889;28;20380;-79
2024/03/10 09:35:00;;;;;;;;;;;;;;;14.81;64.72;99255.34;5080719;28;19924;-79
2024/03/10 09:37:47;;;;;;;;;;;;;;;15.14;65.31;99244.22;5083786;28;19920;-79
2024/03/10 09:40:37;;;;;;;;;;;;;;;14.77;63.87;99238.91;5084981;28;19920;-79
2024/03/10 09:43:26;;;;;;;;;;;;;;;14.83;63.82;99225.66;5076683;28;19916;-80
2024/03/10 09:46:13;;;;;;;;;;;;;;;14.83;63.97;99237.34;5077715;28;19920;-79
2024/03/10 09:49:06;;;;;;;;;;;;;;;14.96;63.46;99222.22;5096916;28;20312;-81
2024/03/10 09:51:56;;;;;;;;;;;;;;;14.88;62.66;99206.13;5089679;28;19932;-79
2024/03/10 09:54:46;;;;;;;;;;;;;;;14.69;63.36;99200.91;5079790;28;19916;-80
2024/03/10 09:57:39;;;;;;;;;;;;;;;14.67;62.88;99200.50;5064527;28;20293;-81
2024/03/10 10:00:31;;;;;;;;;;;;;;;14.55;63.13;99182.44;5091785;28;19920;-79
2024/03/10 10:03:20;;;;;;;;;;;;;;;14.69;63.45;99179.78;5076198;28;19919;-79
2024/03/10 10:06:15;;;;;;;;;;;;;;;14.77;63.39;99186.91;5078838;28;19916;-78
2024/03/10 10:09:09;;;;;;;;;;;;;;;14.97;62.87;99151.84;5090271;28;20397;-76
2024/03/10 10:11:59;;;;;;;;;;;;;;;15.47;62.50;99141.91;5089896;28;19921;-81
2024/03/10 10:14:51;;;;;;;;;;;;;;;15.71;61.65;99154.13;5079020;28;19920;-81
2024/03/10 10:17:43;;;;;;;;;;;;;;;15.32;61.03;99149.28;5084389;28;19917;-79
2024/03/10 10:20:32;;;;;;;;;;;;;;;15.44;60.53;99158.31;5094886;28;19916;-78
2024/03/10 10:23:26;;;;;;;;;;;;;;;15.34;61.22;99157.88;5071725;28;19920;-80
2024/03/10 10:26:15;;;;;;;;;;;;;;;15.12;61.79;99163.66;5089827;28;19916;-81
2024/03/10 10:29:06;;;;;;;;;;;;;;;15.00;62.40;99170.22;5079834;28;20541;-82
2024/03/10 10:31:59;;;;;;;;;;;;;;;14.87;62.71;99182.66;5094745;28;20242;-81
2024/03/10 10:34:53;;;;;;;;;;;;;;;14.86;63.21;99187.34;5077092;28;19924;-78
2024/03/10 10:37:42;;;;;;;;;;;;;;;14.02;66.83;99176.44;5094874;28;19917;-83
2024/03/10 10:40:32;;;;;;;;;;;;;;;13.66;68.82;99162.41;5091351;28;19916;-82
2024/03/10 10:43:23;;;;;;;;;;;;;;;13.36;70.55;99174.56;5089540;28;19916;-82
2024/03/10 10:46:15;;;;;;;;;;;;;;;13.15;72.69;99183.25;5104111;28;19916;-83
2024/03/10 10:49:08;;;;;;;;;;;;;;;13.09;72.55;99162.88;5066752;28;20341;-85
2024/03/10 10:52:01;;;;;;;;;;;;;;;12.91;73.01;99172.72;5061159;28;19917;-78
2024/03/10 10:54:53;;;;;;;;;;;;;;;12.89;73.92;99185.97;5074508;28;19921;-82
2024/03/10 10:57:46;;;;;;;;;;;;;;;12.78;74.46;99170.22;5082520;28;19916;-82
2024/03/10 11:00:39;;;;;;;;;;;;;;;12.78;74.78;99181.16;5086431;28;19916;-82
2024/03/10 11:03:29;;;;;;;;;;;;;;;12.82;75.59;99173.78;5069327;28;19916;-82
2024/03/10 11:06:23;;;;;;;;;;;;;;;12.73;77.26;99156.91;5077108;28;19916;-79
2024/03/10 11:09:14;;;;;;;;;;;;;;;12.61;78.60;99142.69;5083796;28;19920;-82
2024/03/10 11:12:23;;;;;;;;;;;;;;;12.75;78.60;99115.59;5068686;28;19916;-82
2024/03/10 11:15:15;;;;;;;;;;;;;;;13.15;79.75;99102.16;5065911;28;19924;-82
2024/03/10 11:18:25;;;;;;;;;;;;;;;13.14;78.66;99105.25;5065745;28;19924;-82
2024/03/10 11:21:21;;;;;;;;;;;;;;;13.17;78.05;99108.03;5079599;28;19924;-82
2024/03/10 11:24:14;;;;;;;;;;;;;;;13.24;78.56;99093.69;5079472;28;19916;-81
2024/03/10 11:27:11;;;;;;;;;;;;;;;13.15;77.92;99085.78;5077033;28;19916;-80
2024/03/10 11:30:18;;;;;;;;;;;;;;;13.25;78.34;99070.69;5074573;28;20297;-82
2024/03/10 11:33:10;;;;;;;;;;;;;;;13.39;77.99;99045.47;5087908;28;19920;-83
2024/03/10 11:36:00;;;;;;;;;;;;;;;13.20;77.69;99060.09;5098831;28;19920;-81
2024/03/10 11:38:50;;;;;;;;;;;;;;;13.15;77.87;99035.88;5109922;28;19924;-82
2024/03/10 11:41:42;;;;;;;;;;;;;;;13.09;77.64;99048.25;5089488;28;19916;-82
2024/03/10 11:44:34;;;;;;;;;;;;;;;13.22;78.77;99034.00;5084249;28;19916;-81
2024/03/10 11:47:23;;;;;;;;;;;;;;;13.12;77.66;99042.06;5087845;28;20296;-82
2024/03/10 11:50:15;;;;;;;;;;;;;;;13.00;77.77;99036.84;5099654;28;19916;-82
2024/03/10 11:53:07;;;;;;;;;;;;;;;13.04;77.90;99045.84;5098479;28;19920;-82
2024/03/10 11:55:57;;;;;;;;;;;;;;;13.03;78.23;99066.09;5087273;28;19919;-81
2024/03/10 11:58:45;;;;;;;;;;;;;;;13.06;78.97;99070.81;5097850;28;19920;-82
2024/03/10 12:01:37;;;;;;;;;;;;;;;13.01;79.89;99061.00;5098413;28;19920;-80
2024/03/10 12:04:27;;;;;;;;;;;;;;;13.03;82.66;99050.50;5084690;28;20376;-82
2024/03/10 12:07:17;;;;;;;;;;;;;;;13.14;82.66;99017.91;5084591;28;19916;-81
2024/03/10 12:10:08;;;;;;;;;;;;;;;13.07;81.85;98998.69;5087644;28;19920;-81
2024/03/10 12:12:55;;;;;;;;;;;;;;;12.98;81.22;99020.03;5078290;28;19924;-81
2024/03/10 12:15:48;;;;;;;;;;;;;;;13.25;79.84;98986.06;5078933;28;19920;-80
2024/03/10 12:18:40;;;;;;;;;;;;;;;13.15;80.33;98987.53;5080899;28;19920;-81
2024/03/10 12:21:30;;;;;;;;;;;;;;;13.13;80.50;98972.69;5083278;28;19916;-81
2024/03/10 12:24:23;;;;;;;;;;;;;;;13.25;80.12;98980.63;5098501;28;19919;-81
2024/03/10 12:27:12;;;;;;;;;;;;;;;13.19;79.64;98971.97;5100808;28;20292;-81
2024/03/10 12:29:59;;;;;;;;;;;;;;;13.07;80.25;98976.88;5091970;28;19916;-82
2024/03/10 12:32:52;;;;;;;;;;;;;;;12.91;81.11;98979.03;5106051;28;19923;-81
2024/03/10 12:35:44;;;;;;;;;;;;;;;12.91;81.91;98973.56;5066953;28;19920;-81
2024/03/10 12:38:33;;;;;;;;;;;;;;;12.89;82.59;98956.81;5070597;28;19921;-83
2024/03/10 12:41:23;;;;;;;;;;;;;;;12.95;82.58;98952.59;5068151;28;19916;-84
2024/03/10 12:44:14;;;;;;;;;;;;;;;12.96;82.99;98956.88;5062534;28;19920;-83
2024/03/10 12:47:07;;;;;;;;;;;;;;;12.99;83.74;98942.50;5055617;28;19920;-82
2024/03/10 12:49:59;;;;;;;;;;;;;;;12.94;83.40;98931.91;5059187;28;19920;-83
2024/03/10 12:52:51;;;;;;;;;;;;;;;12.96;83.46;98938.56;5073510;28;19924;-84
2024/03/10 12:55:43;;;;;;;;;;;;;;;13.09;83.28;98945.34;5062448;28;19916;-83
2024/03/10 12:58:36;;;;;;;;;;;;;;;13.45;82.69;98946.47;5072573;28;19920;-84
2024/03/10 13:01:28;;;;;;;;;;;;;;;13.14;82.91;98946.97;5072069;28;20300;-84
2024/03/10 13:04:16;;;;;;;;;;;;;;;13.08;84.06;98949.22;5064143;28;19916;-84
2024/03/10 13:26:08;;;;;;;;;;;;;;;11.72;100.00;99157.53;5089280;28;19925;-78
2024/03/10 13:28:57;;;;;;;;;;;;;;;11.78;100.00;99161.56;5068769;28;20308;-81
2024/03/10 13:31:49;;;;;;;;;;;;;;;11.83;100.00;99155.81;5070165;28;20397;-81
2024/03/10 13:34:41;;;;;;;;;;;;;;;11.67;100.00;99160.53;5076737;28;19920;-81
2024/03/10 13:37:33;;;;;;;;;;;;;;;11.66;100.00;99164.41;5078927;28;19924;-84
2024/03/10 13:40:22;;;;;;;;;;;;;;;11.89;100.00;99157.06;5073250;28;20588;-81
2024/03/10 13:43:14;;;;;;;;;;;;;;;11.71;100.00;99175.00;5078765;28;19916;-81
2024/03/10 13:46:03;;;;;;;;;;;;;;;11.38;100.00;99182.88;5083121;28;19920;-79
2024/03/10 13:48:57;;;;;;;;;;;;;;;11.53;100.00;99198.34;5077375;28;20324;-82
2024/03/10 13:51:51;;;;;;;;;;;;;;;11.54;100.00;99199.94;5071661;28;19916;-78
2024/03/10 13:54:43;;;;;;;;;;;;;;;11.62;100.00;99198.16;5076238;28;20401;-80
2024/03/10 13:57:35;;;;;;;;;;;;;;;11.41;100.00;99188.41;5080752;28;20396;-80
2024/03/10 14:00:27;;;;;;;;;;;;;;;11.50;100.00;99156.31;5071853;28;19921;-82
2024/03/10 14:03:19;;;;;;;;;;;;;;;12.17;100.00;99148.63;5073285;28;19924;-81
2024/03/10 14:06:11;;;;;;;;;;;;;;;11.60;100.00;99119.56;5064035;28;19916;-84
2024/03/10 14:09:04;;;;;;;;;;;;;;;11.56;100.00;99129.59;5061885;28;19916;-83
2024/03/10 14:11:54;;;;;;;;;;;;;;;11.34;100.00;99109.34;5059150;28;19916;-82
2024/03/10 14:14:47;;;;;;;;;;;;;;;10.86;100.00;99118.84;5069727;28;19924;-81
2024/03/10 14:17:38;;;;;;;;;;;;;;;10.86;100.00;99118.84;5065360;28;19920;-82
2024/03/10 14:20:31;;;;;;;;;;;;;;;10.75;100.00;99049.88;5075815;28;19919;-80
2024/03/10 14:23:20;;;;;;;;;;;;;;;11.65;100.00;99089.31;5065615;28;19916;-82
2024/03/10 14:26:12;;;;;;;;;;;;;;;11.70;100.00;99077.34;5089913;28;19920;-81
2024/03/10 14:29:05;;;;;;;;;;;;;;;11.38;100.00;99104.75;5062007;28;20011;-82
2024/03/10 14:32:03;;;;;;;;;;;;;;;11.41;100.00;99130.47;5067773;28;20288;-82
2024/03/10 14:34:55;;;;;;;;;;;;;;;11.84;100.00;99132.84;5068051;28;20307;-81
2024/03/10 14:37:45;;;;;;;;;;;;;;;11.88;100.00;99132.94;5073729;28;19920;-81
2024/03/10 14:40:37;;;;;;;;;;;;;;;12.28;100.00;99146.88;5074960;28;19924;-82
2024/03/10 14:43:29;;;;;;;;;;;;;;;12.26;100.00;99176.41;5075260;28;19916;-82
2024/03/10 14:46:18;;;;;;;;;;;;;;;12.16;100.00;99176.22;5095190;28;19916;-84
2024/03/10 14:49:08;;;;;;;;;;;;;;;12.13;100.00;99155.97;5074821;28;19916;-81
2024/03/10 14:51:58;;;;;;;;;;;;;;;11.58;100.00;99124.56;5089454;28;19920;-82
2024/03/10 14:54:48;;;;;;;;;;;;;;;11.97;100.00;99147.09;5095192;28;19927;-81
2024/03/10 14:57:42;;;;;;;;;;;;;;;12.16;100.00;99155.22;5073415;28;19916;-83
2024/03/10 15:00:34;;;;;;;;;;;;;;;12.26;100.00;99156.53;5067199;28;20305;-81
2024/03/10 15:03:34;;;;;;;;;;;;;;;12.40;100.00;99165.72;5077267;28;19920;-82
2024/03/10 15:06:30;;;;;;;;;;;;;;;12.16;100.00;99187.91;5085910;28;19923;-82
2024/03/10 15:09:19;;;;;;;;;;;;;;;12.32;100.00;99176.91;5090099;28;19924;-83
2024/03/10 15:12:12;;;;;;;;;;;;;;;12.48;100.00;99172.09;5068803;28;19916;-84
2024/03/10 15:15:03;;;;;;;;;;;;;;;12.78;100.00;99177.63;5071712;28;19924;-84
2024/03/10 15:17:55;;;;;;;;;;;;;;;12.84;100.00;99174.22;5090498;28;19998;-83
2024/03/10 15:20:47;;;;;;;;;;;;;;;12.93;100.00;99178.63;5076482;28;19916;-82
2024/03/10 15:23:38;;;;;;;;;;;;;;;12.63;100.00;99186.75;5075762;28;19920;-81
2024/03/10 15:26:29;;;;;;;;;;;;;;;12.91;100.00;99183.66;5094121;28;19916;-82
2024/03/10 15:29:20;;;;;;;;;;;;;;;13.11;100.00;99187.81;5084862;28;19916;-83
2024/03/10 15:32:10;;;;;;;;;;;;;;;12.78;100.00;99194.78;5078519;28;19917;-83